^^
Datos históricos de la estación: Murcia-Puente Tocinos
Diario Informe para Diciembre 26, 2019 Unidades:  Ingés    Métrico   Ambas
Diario Semanal Mensual Anual
  Máxima: Mínima: Promedio:
Temperatura: 75.4 °F 51.3 °F 62.2 °F
Punto de rocio: 51.8 °F 35.1 °F 42.6 °F
Humedad: 78% 30% 51%
Velocidad viento: 12.3mph 0mph 5.5mph
Racha viento: 21mph - -
Viento- - SSO
Presión: 30.4 in 30.2 in -
Precipitación: 0 in    
 
 
Tabla de datos para Diciembre 26, 2019
Hora Temperatura Punto de rocio Presión Viento Velocidad viento Racha viento Humedad Intensidad lluvia(por hora) Nubes
00:04 52.2 °F 44.2 °F 30.2 in SSO 5.3 mph 9 mph 74.6% 0 in
00:09 52.2 °F 44.1 °F 30.2 in SSO 5.4 mph 9.2 mph 74.1% 0 in
00:14 52.2 °F 44.1 °F 30.2 in SSO 5.4 mph 9.2 mph 74% 0 in
00:19 52.2 °F 44.1 °F 30.2 in SO 5.4 mph 8.5 mph 74% 0 in
00:24 52.2 °F 44.1 °F 30.2 in SO 5.4 mph 9 mph 74% 0 in
00:29 52.2 °F 44.1 °F 30.2 in SO 5.4 mph 7 mph 74% 0 in
00:34 52.2 °F 44.1 °F 30.2 in SO 3.9 mph 5 mph 74% 0 in
00:39 52 °F 43.9 °F 30.2 in SO 2.9 mph 5 mph 74% 0 in
00:44 52 °F 43.9 °F 30.2 in OSO 2.4 mph 5 mph 74% 0 in
00:49 52 °F 44.2 °F 30.2 in OSO 2 mph 4.7 mph 74.9% 0 in
00:54 51.8 °F 44.1 °F 30.2 in SO 2.2 mph 6.9 mph 75% 0 in
00:59 51.6 °F 44.1 °F 30.2 in SO 2.4 mph 9.2 mph 75% 0 in
01:04 52 °F 44.1 °F 30.2 in SO 4.2 mph 9 mph 74.4% 0 in
01:09 52.2 °F 44.1 °F 30.2 in SO 5.2 mph 8 mph 74% 0 in
01:14 52.3 °F 43.9 °F 30.2 in SSO 5.2 mph 10.4 mph 72.9% 0 in
01:19 53.1 °F 44.1 °F 30.2 in SSO 5.2 mph 10.2 mph 71.2% 0 in
01:24 53.4 °F 43.7 °F 30.2 in SO 5.8 mph 10.4 mph 69.5% 0 in
01:29 53.4 °F 43.3 °F 30.2 in SO 6.2 mph 9.2 mph 68.7% 0 in
01:34 53.4 °F 43.2 °F 30.2 in SO 5.7 mph 9 mph 68% 0 in
01:39 53.2 °F 43 °F 30.2 in SO 5.4 mph 9.2 mph 68% 0 in
01:44 53.1 °F 42.8 °F 30.2 in SO 5 mph 9 mph 67.8% 0 in
01:49 53.2 °F 42.6 °F 30.2 in SO 4.7 mph 9.2 mph 67% 0 in
01:54 53.2 °F 42.6 °F 30.2 in SO 5.5 mph 9.7 mph 67% 0 in
01:59 53.2 °F 42.6 °F 30.2 in SSO 5.9 mph 10.4 mph 66.8% 0 in
02:04 53.6 °F 42.4 °F 30.2 in SSO 6.1 mph 10 mph 66% 0 in
02:09 53.8 °F 42.4 °F 30.2 in SSO 6.2 mph 9 mph 65.4% 0 in
02:14 54 °F 42.4 °F 30.2 in Sur 5.3 mph 7 mph 65% 0 in
02:19 53.6 °F 42.3 °F 30.2 in SSE 4.7 mph 7 mph 65.1% 0 in
02:24 53.2 °F 42.3 °F 30.2 in Sur 4.3 mph 6 mph 66% 0 in
02:29 53.2 °F 42.1 °F 30.2 in Sur 4 mph 6.2 mph 65.6% 0 in
02:34 53.8 °F 41.7 °F 30.2 in SSO 3.8 mph 8.5 mph 63.8% 0 in
02:39 54.5 °F 41.5 °F 30.2 in SSO 3.6 mph 9.2 mph 61.3% 0 in
02:44 55.2 °F 41.2 °F 30.2 in SSO 5 mph 9.7 mph 59.3% 0 in
02:49 55.6 °F 41 °F 30.2 in SSO 5.9 mph 10 mph 58.1% 0 in
02:54 55.6 °F 40.6 °F 30.2 in SO 5.6 mph 9 mph 57.2% 0 in
02:59 55.8 °F 40.6 °F 30.2 in SO 5.4 mph 8 mph 57% 0 in
03:04 55.8 °F 40.3 °F 30.2 in SO 4.7 mph 7.4 mph 56% 0 in
03:09 55.8 °F 40.3 °F 30.2 in SO 4.3 mph 8.1 mph 56% 0 in
03:14 55.6 °F 40.1 °F 30.2 in SO 4.3 mph 8 mph 56% 0 in
03:19 55.8 °F 40.3 °F 30.2 in SO 4.3 mph 7 mph 55.8% 0 in
03:24 55.8 °F 39.7 °F 30.2 in SO 4.1 mph 8.1 mph 55% 0 in
03:29 55.8 °F 40.1 °F 30.2 in OSO 4 mph 8 mph 55.6% 0 in
03:34 55 °F 40.3 °F 30.2 in OSO 4.8 mph 8 mph 57.4% 0 in
03:39 54 °F 40.3 °F 30.2 in OSO 5.4 mph 6.9 mph 59.7% 0 in
03:44 53.1 °F 40.5 °F 30.2 in Oeste 4.7 mph 7 mph 62.2% 0 in
03:49 52.2 °F 40.5 °F 30.2 in Oeste 4.3 mph 6 mph 64.5% 0 in
03:54 51.4 °F 40.5 °F 30.2 in OSO 3.9 mph 6 mph 66.1% 0 in
03:59 51.3 °F 40.6 °F 30.2 in SO 3.6 mph 7.4 mph 66.6% 0 in
04:04 51.6 °F 40.3 °F 30.2 in SO 3.9 mph 8.1 mph 65.2% 0 in
04:09 52.2 °F 40.1 °F 30.2 in OSO 4 mph 8.1 mph 63.7% 0 in
04:14 52.3 °F 40.1 °F 30.2 in OSO 4 mph 6 mph 63% 0 in
04:19 52.7 °F 39.7 °F 30.2 in SSO 4 mph 9.2 mph 61.2% 0 in
04:24 53.4 °F 39.6 °F 30.2 in OSO 4 mph 9 mph 59.2% 0 in
04:29 53.8 °F 39.6 °F 30.2 in SO 4 mph 5.2 mph 58.5% 0 in
04:34 54.1 °F 39.2 °F 30.2 in SO 3.4 mph 9.2 mph 57% 0 in
04:39 54.9 °F 38.8 °F 30.2 in SSO 2.9 mph 13 mph 54.8% 0 in
04:44 55.8 °F 38.5 °F 30.2 in SO 5.3 mph 13 mph 52.5% 0 in
04:49 55.9 °F 38.3 °F 30.2 in SSO 6.9 mph 13 mph 51.4% 0 in
04:54 56.1 °F 38.1 °F 30.2 in SSO 6.5 mph 11.5 mph 51% 0 in
04:59 56.1 °F 37.9 °F 30.2 in SSO 6.2 mph 12 mph 50.5% 0 in
05:04 56.5 °F 37.8 °F 30.2 in SSO 7 mph 13.8 mph 49.5% 0 in
05:09 56.8 °F 37.6 °F 30.2 in SSO 7.4 mph 14 mph 48.3% 0 in
05:14 57 °F 37.6 °F 30.2 in SSO 8.1 mph 12.7 mph 48% 0 in
05:19 57.2 °F 37 °F 30.2 in SSO 8.5 mph 13 mph 47.1% 0 in
05:24 57.4 °F 37.2 °F 30.2 in SO 7.8 mph 10.4 mph 47% 0 in
05:29 57.4 °F 37.2 °F 30.2 in SSO 7.4 mph 11.5 mph 46.7% 0 in
05:34 57.6 °F 36.9 °F 30.2 in SSO 7.1 mph 13.7 mph 45.8% 0 in
05:39 57.7 °F 36.5 °F 30.2 in SSO 6.9 mph 15 mph 45% 0 in
05:44 57.7 °F 36.5 °F 30.2 in SSO 7.8 mph 15 mph 45% 0 in
05:49 57.9 °F 36.7 °F 30.2 in SSO 8.5 mph 13 mph 45% 0 in
05:54 57.9 °F 36.7 °F 30.2 in SSO 8 mph 13 mph 45% 0 in
05:59 58.1 °F 36.7 °F 30.2 in SSO 7.6 mph 13 mph 44.7% 0 in
06:04 57.9 °F 36.7 °F 30.2 in SSO 6.8 mph 12 mph 45% 0 in
06:09 57.6 °F 36.7 °F 30.2 in SSO 6.4 mph 12.7 mph 45.6% 0 in
06:14 57.4 °F 36.7 °F 30.2 in SSO 7 mph 13 mph 45.7% 0 in
06:19 57.6 °F 36.3 °F 30.2 in SSO 7.4 mph 12.7 mph 45% 0 in
06:24 57.7 °F 36.3 °F 30.2 in SSO 7.8 mph 13.8 mph 44.6% 0 in
06:29 58.1 °F 36.1 °F 30.2 in SSO 8.1 mph 15.2 mph 43.7% 0 in
06:34 58.8 °F 36.1 °F 30.2 in SSO 9.1 mph 15 mph 42.4% 0 in
06:39 59.4 °F 36.1 °F 30.2 in SSO 9.7 mph 14 mph 41.9% 0 in
06:44 59.4 °F 35.6 °F 30.2 in SO 8.7 mph 14 mph 41% 0 in
06:49 59.4 °F 36 °F 30.2 in SO 8.1 mph 14 mph 41.8% 0 in
06:54 59 °F 36 °F 30.2 in SSO 8.1 mph 14.7 mph 42% 0 in
06:59 59 °F 36 °F 30.2 in SSO 8.1 mph 15 mph 42% 0 in
07:04 59 °F 36 °F 30.2 in SSO 8.8 mph 14 mph 42% 0 in
07:09 59 °F 36 °F 30.2 in SSO 9.2 mph 17.3 mph 42% 0 in
07:14 58.8 °F 35.8 °F 30.2 in SSO 9.5 mph 17 mph 42% 0 in
07:19 58.6 °F 35.6 °F 30.2 in SSO 9.7 mph 15 mph 42% 0 in
07:24 58.8 °F 35.8 °F 30.2 in SSO 10 mph 16.1 mph 42% 0 in
07:29 59.4 °F 35.6 °F 30.2 in SSO 10.2 mph 16 mph 41% 0 in
07:34 59.7 °F 35.4 °F 30.2 in SSO 10.2 mph 15 mph 40.1% 0 in
07:39 60.3 °F 35.2 °F 30.2 in SSO 10.2 mph 15.6 mph 39.1% 0 in
07:44 61 °F 35.2 °F 30.2 in SO 10.5 mph 19 mph 38.2% 0 in
07:49 61.5 °F 35.1 °F 30.2 in SSO 10.7 mph 19 mph 37.3% 0 in
07:54 61.9 °F 35.2 °F 30.2 in SSO 10.4 mph 19 mph 37% 0 in
07:59 61.9 °F 35.2 °F 30.2 in SSO 10.2 mph 20.7 mph 37% 0 in
08:04 61.9 °F 35.2 °F 30.2 in SO 11.6 mph 21 mph 37% 0 in
08:09 61.5 °F 35.1 °F 30.2 in SSO 12.3 mph 19 mph 37% 0 in
08:14 61.3 °F 35.4 °F 30.2 in SO 11.3 mph 17 mph 37.8% 0 in
08:19 61.2 °F 35.4 °F 30.2 in SSO 10.7 mph 15 mph 38% 0 in
08:24 61.2 °F 35.2 °F 30.2 in SSO 8 mph 12.3 mph 38% 0 in
08:29 61.2 °F 35.2 °F 30.2 in SSO 6.4 mph 12.7 mph 38% 0 in
08:34 61.2 °F 35.2 °F 30.2 in SO 6.1 mph 13 mph 38% 0 in
08:39 61.3 °F 35.4 °F 30.2 in SSO 5.9 mph 11.2 mph 38% 0 in
08:44 61.3 °F 35.2 °F 30.2 in SSO 6.2 mph 12.3 mph 37.4% 0 in
08:49 61.9 °F 35.2 °F 30.2 in SSO 6.4 mph 13.8 mph 37% 0 in
08:54 62.1 °F 35.4 °F 30.2 in SSO 7.5 mph 14 mph 37% 0 in
08:59 62.1 °F 35.4 °F 30.2 in SO 8.1 mph 13.8 mph 37% 0 in
09:04 62.2 °F 35.6 °F 30.2 in SSO 8.5 mph 14 mph 37% 0 in
09:09 62.2 °F 35.6 °F 30.2 in SSO 8.7 mph 13 mph 37% 0 in
09:14 62.2 °F 35.8 °F 30.2 in SSO 8.6 mph 13 mph 37% 0 in
09:19 62.4 °F 35.8 °F 30.2 in SSO 8.5 mph 13.8 mph 37% 0 in
09:24 62.2 °F 36.1 °F 30.2 in SSO 8.9 mph 15.2 mph 37.7% 0 in
09:29 62.1 °F 36.1 °F 30.2 in SSO 9.2 mph 16.1 mph 38% 0 in
09:34 62.1 °F 36.3 °F 30.2 in SSO 8.9 mph 16.1 mph 38.2% 0 in
09:39 62.1 °F 36.9 °F 30.2 in SSO 8.7 mph 16 mph 39% 0 in
09:44 62.1 °F 36.9 °F 30.2 in SSO 9.5 mph 14 mph 39% 0 in
09:49 62.4 °F 36.9 °F 30.2 in SO 10 mph 16.3 mph 38.6% 0 in
09:54 63 °F 36.7 °F 30.2 in SO 9.5 mph 16.1 mph 37.6% 0 in
09:59 63.7 °F 36.9 °F 30.2 in SO 9.2 mph 16.3 mph 37% 0 in
10:04 64 °F 37.2 °F 30.2 in SSO 9.2 mph 16 mph 37% 0 in
10:09 63.9 °F 37.6 °F 30.2 in SSO 9.2 mph 13 mph 37.9% 0 in
10:14 63.7 °F 37.8 °F 30.2 in SSO 8.8 mph 14 mph 38.2% 0 in
10:19 63.7 °F 38.1 °F 30.2 in SO 8.5 mph 14 mph 38.8% 0 in
10:24 63.9 °F 38.1 °F 30.2 in SO 8 mph 12.7 mph 38.4% 0 in
10:29 64.4 °F 37.8 °F 30.2 in SO 7.6 mph 13 mph 37.5% 0 in
10:34 64.8 °F 37.9 °F 30.2 in SSO 7.6 mph 12 mph 37% 0 in
10:39 65.1 °F 37.8 °F 30.2 in SSO 7.6 mph 12 mph 36.4% 0 in
10:44 65.7 °F 37.9 °F 30.2 in SO 6.7 mph 12 mph 36% 0 in
10:49 65.8 °F 38.3 °F 30.2 in Sur 6.2 mph 10.4 mph 36% 0 in
10:54 66.2 °F 38.5 °F 30.2 in Sur 5.7 mph 10 mph 36% 0 in
10:59 66.4 °F 38.7 °F 30.2 in SSO 5.4 mph 11.5 mph 36% 0 in
11:04 66.4 °F 39 °F 30.2 in SSO 5.4 mph 12 mph 36.6% 0 in
11:09 66.6 °F 39.6 °F 30.2 in SSO 5.4 mph 11.8 mph 37% 0 in
11:14 66.6 °F 40.1 °F 30.2 in SSO 5.7 mph 12 mph 37.9% 0 in
11:19 66.6 °F 40.1 °F 30.2 in SSO 5.9 mph 12 mph 37.9% 0 in
11:24 66.7 °F 40.3 °F 30.2 in SO 6.2 mph 12 mph 38% 0 in
11:29 66.9 °F 40.3 °F 30.2 in SO 6.4 mph 12 mph 37.7% 0 in
11:34 67.1 °F 40.5 °F 30.2 in SSO 6.3 mph 11 mph 37.8% 0 in
11:39 67.5 °F 40.5 °F 30.2 in SO 6.2 mph 10 mph 37.3% 0 in
11:44 67.8 °F 40.6 °F 30.2 in SO 5.6 mph 10.4 mph 37% 0 in
11:49 68.2 °F 41 °F 30.2 in SO 5.2 mph 10 mph 37% 0 in
11:54 68.5 °F 41.2 °F 30.2 in SO 4.6 mph 9.2 mph 37% 0 in
11:59 68.9 °F 41.5 °F 30.2 in SSO 4.3 mph 9 mph 37% 0 in
12:04 69.4 °F 41.4 °F 30.2 in SSO 4.3 mph 8.1 mph 36.1% 0 in
12:09 69.6 °F 41.7 °F 30.2 in SSO 4.3 mph 8 mph 36.3% 0 in
12:14 69.6 °F 41.5 °F 30.2 in SO 4.3 mph 8.5 mph 36% 0 in
12:19 69.8 °F 41.7 °F 30.2 in OSO 4.3 mph 10.7 mph 36% 0 in
12:24 70 °F 41.7 °F 30.2 in SO 4.8 mph 11 mph 36% 0 in
12:29 70.3 °F 42.1 °F 30.2 in OSO 5.2 mph 9.2 mph 35.9% 0 in
12:34 70.5 °F 42.3 °F 30.2 in OSO 4.5 mph 9 mph 36% 0 in
12:39 71.1 °F 41.9 °F 30.2 in SO 4 mph 9.7 mph 35% 0 in
12:44 71.2 °F 41.9 °F 30.2 in OSO 4.2 mph 10 mph 34.6% 0 in
12:49 71.6 °F 41.5 °F 30.2 in OSO 4.3 mph 9.7 mph 33.9% 0 in
12:54 72 °F 41.2 °F 30.2 in OSO 5.3 mph 13.8 mph 33% 0 in
12:59 72 °F 41 °F 30.2 in OSO 5.9 mph 15 mph 32.5% 0 in
13:04 72.1 °F 41 °F 30.2 in OSO 7.4 mph 15 mph 32.4% 0 in
13:09 72.1 °F 41 °F 30.2 in OSO 8.1 mph 13 mph 32.4% 0 in
13:14 72.3 °F 41.5 °F 30.2 in OSO 6.8 mph 12 mph 33% 0 in
13:19 72.7 °F 41.7 °F 30.2 in OSO 5.9 mph 10.7 mph 32.7% 0 in
13:24 72.9 °F 41.4 °F 30.2 in OSO 5.6 mph 15 mph 32.2% 0 in
13:29 72.9 °F 41.4 °F 30.2 in OSO 5.4 mph 15 mph 32% 0 in
13:34 72.9 °F 41.4 °F 30.2 in OSO 7 mph 14 mph 32% 0 in
13:39 73 °F 41.4 °F 30.2 in Oeste 8.1 mph 14 mph 32% 0 in
13:44 73.2 °F 41.5 °F 30.2 in OSO 7.4 mph 14 mph 32% 0 in
13:49 73.6 °F 41.5 °F 30.2 in Oeste 6.9 mph 12 mph 31.5% 0 in
13:54 73.8 °F 41.2 °F 30.2 in OSO 6.5 mph 13.8 mph 31% 0 in
13:59 73.9 °F 41 °F 30.2 in Oeste 6.2 mph 18.4 mph 30.5% 0 in
14:04 74.1 °F 40.8 °F 30.2 in Oeste 7.1 mph 18 mph 30% 0 in
14:09 74.5 °F 41 °F 30.2 in Oeste 7.6 mph 17.3 mph 30% 0 in
14:14 74.3 °F 40.8 °F 30.2 in Oeste 8.9 mph 17 mph 30% 0 in
14:19 74.5 °F 41.7 °F 30.2 in OSO 9.7 mph 16 mph 30.9% 0 in
14:24 74.7 °F 42.1 °F 30.2 in OSO 8.3 mph 13.8 mph 31% 0 in
14:29 74.8 °F 42.3 °F 30.2 in OSO 7.4 mph 14 mph 31% 0 in
14:34 74.8 °F 42.3 °F 30.2 in Oeste 7.4 mph 15.6 mph 31% 0 in
14:39 74.8 °F 42.1 °F 30.2 in OSO 7.4 mph 16.1 mph 31% 0 in
14:44 74.8 °F 43 °F 30.2 in SO 7.4 mph 13 mph 32% 0 in
14:49 74.8 °F 42.4 °F 30.2 in SSO 7.4 mph 13.8 mph 31.2% 0 in
14:54 74.8 °F 42.4 °F 30.2 in SO 6.7 mph 14 mph 31.2% 0 in
14:59 74.8 °F 43 °F 30.2 in SSO 6.2 mph 12 mph 32% 0 in
15:04 74.8 °F 43 °F 30.2 in SO 5.7 mph 9.7 mph 32% 0 in
15:09 74.8 °F 43 °F 30.2 in SO 5.4 mph 10 mph 32% 0 in
15:14 74.8 °F 43 °F 30.2 in SO 5.4 mph 9.2 mph 31.8% 0 in
15:19 75.2 °F 42.6 °F 30.2 in OSO 5.4 mph 10.4 mph 31.2% 0 in
15:24 75.2 °F 41.7 °F 30.2 in Oeste 5.7 mph 10 mph 30.1% 0 in
15:29 75 °F 42.1 °F 30.2 in OSO 5.9 mph 10.7 mph 30.8% 0 in
15:34 75 °F 42.3 °F 30.2 in SO 5.9 mph 11 mph 30.9% 0 in
15:39 74.8 °F 42.3 °F 30.2 in OSO 5.9 mph 11 mph 31% 0 in
15:44 74.8 °F 42.4 °F 30.2 in OSO 5.9 mph 10.4 mph 31.3% 0 in
15:49 75 °F 43.2 °F 30.2 in OSO 5.9 mph 10 mph 32% 0 in
15:54 75.2 °F 43.2 °F 30.2 in OSO 5.5 mph 9 mph 32% 0 in
15:59 75.4 °F 43.5 °F 30.2 in OSO 5.2 mph 8 mph 32% 0 in
16:04 75.4 °F 43.5 °F 30.2 in Oeste 4.6 mph 11.8 mph 32% 0 in
16:09 75.2 °F 43.3 °F 30.2 in Oeste 4.3 mph 12 mph 32% 0 in
16:14 75.2 °F 43.7 °F 30.2 in Oeste 6.2 mph 12 mph 32.5% 0 in
16:19 75.2 °F 44.1 °F 30.2 in Oeste 7.4 mph 9 mph 32.9% 0 in
16:24 75 °F 43.9 °F 30.2 in Oeste 6.2 mph 11.5 mph 32.9% 0 in
16:29 75 °F 44.1 °F 30.2 in Oeste 5.4 mph 12 mph 33% 0 in
16:34 74.8 °F 43.9 °F 30.2 in Oeste 5.7 mph 10 mph 33% 0 in
16:39 74.8 °F 44.4 °F 30.2 in OSO 5.9 mph 10 mph 33.8% 0 in
16:44 74.7 °F 44.2 °F 30.2 in Oeste 4.5 mph 7 mph 33.9% 0 in
16:49 74.7 °F 44.2 °F 30.2 in Oeste 3.6 mph 7 mph 33.9% 0 in
16:54 74.5 °F 44.2 °F 30.2 in OSO 3.6 mph 7 mph 34% 0 in
16:59 74.3 °F 44.8 °F 30.2 in OSO 3.6 mph 6 mph 35% 0 in
17:04 73.9 °F 44.6 °F 30.2 in OSO 3.3 mph 6.9 mph 35% 0 in
17:09 73.8 °F 44.4 °F 30.2 in Oeste 3.1 mph 7 mph 35% 0 in
17:14 73.6 °F 44.2 °F 30.2 in Oeste 3 mph 5.8 mph 35% 0 in
17:19 73.4 °F 44.1 °F 30.2 in Oeste 2.9 mph 6 mph 35% 0 in
17:24 73.2 °F 44.1 °F 30.2 in Oeste 3 mph 6.4 mph 35.2% 0 in
17:29 73 °F 44.4 °F 30.2 in OSO 3.1 mph 7 mph 35.9% 0 in
17:34 72.9 °F 44.4 °F 30.2 in OSO 3 mph 7 mph 36% 0 in
17:39 72.7 °F 44.2 °F 30.2 in OSO 2.9 mph 5.2 mph 36% 0 in
17:44 72.7 °F 44.2 °F 30.2 in OSO 2.3 mph 5 mph 36% 0 in
17:49 72.3 °F 44.2 °F 30.2 in North 2 mph 9.7 mph 36.5% 0 in
17:54 71.2 °F 46.2 °F 30.2 in NNE 3.5 mph 10.4 mph 41% 0 in
17:59 69.3 °F 47.7 °F 30.2 in NNE 4.3 mph 10.4 mph 46.2% 0 in
18:04 67.6 °F 48.2 °F 30.2 in NNE 5.6 mph 10 mph 49.6% 0 in
18:09 66.6 °F 48.4 °F 30.2 in NNE 6.2 mph 10 mph 51.9% 0 in
18:14 65.5 °F 48.2 °F 30.2 in NNE 5.6 mph 9.7 mph 53.7% 0 in
18:19 64.8 °F 48.2 °F 30.2 in NNE 5.2 mph 10.7 mph 55% 0 in
18:24 64 °F 47.5 °F 30.2 in NNE 5.8 mph 11 mph 54.8% 0 in
18:29 63.7 °F 46.8 °F 30.2 in NNE 6.2 mph 10 mph 54% 0 in
18:34 63.1 °F 46.4 °F 30.2 in NNE 6.3 mph 13.8 mph 54.1% 0 in
18:39 63 °F 46.6 °F 30.3 in NNE 6.4 mph 14 mph 55.3% 0 in
18:44 62.6 °F 46.6 °F 30.3 in NNE 6.7 mph 13 mph 56% 0 in
18:49 62.2 °F 46.6 °F 30.3 in NNE 6.9 mph 13 mph 56.6% 0 in
18:54 61.9 °F 46.6 °F 30.3 in NNE 7.3 mph 12 mph 57.2% 0 in
18:59 61.5 °F 47.1 °F 30.3 in NNE 7.6 mph 11 mph 58.9% 0 in
19:04 61.3 °F 48.6 °F 30.3 in NNE 6.1 mph 12.7 mph 63.1% 0 in
19:09 61 °F 50.2 °F 30.3 in NNE 5.2 mph 13.8 mph 67.6% 0 in
19:14 60.6 °F 50.7 °F 30.3 in NNE 6.7 mph 14 mph 69.6% 0 in
19:19 60.4 °F 51.1 °F 30.3 in NNE 7.6 mph 13.8 mph 70.9% 0 in
19:24 60.4 °F 50.9 °F 30.3 in NNE 7.9 mph 14 mph 71% 0 in
19:29 60.3 °F 51.1 °F 30.3 in NNE 8.1 mph 12 mph 71.7% 0 in
19:34 60.3 °F 51.3 °F 30.3 in NE 7.6 mph 13 mph 72% 0 in
19:39 60.1 °F 51.4 °F 30.3 in NE 7.4 mph 13 mph 73% 0 in
19:44 59.7 °F 51.6 °F 30.3 in ENE 6.6 mph 12 mph 74.3% 0 in
19:49 59.5 °F 51.6 °F 30.3 in NE 6.2 mph 7.6 mph 75.2% 0 in
19:54 59.4 °F 51.8 °F 30.3 in NE 5.3 mph 9.2 mph 76% 0 in
19:59 59.4 °F 51.8 °F 30.3 in NE 4.7 mph 9 mph 76% 0 in
20:04 59.4 °F 51.6 °F 30.3 in NE 5 mph 8 mph 75.6% 0 in
20:09 59.4 °F 51.4 °F 30.3 in NE 5.2 mph 6 mph 75% 0 in
20:14 59.4 °F 51.1 °F 30.3 in NE 4.2 mph 6.2 mph 74.2% 0 in
20:19 59.4 °F 51.1 °F 30.3 in NE 3.6 mph 8.1 mph 74% 0 in
20:24 59.4 °F 51.1 °F 30.3 in NE 4.3 mph 8.1 mph 74% 0 in
20:29 59.4 °F 51.1 °F 30.3 in NNE 4.7 mph 8 mph 74% 0 in
20:34 59.4 °F 51.1 °F 30.3 in North 3.5 mph 5 mph 74% 0 in
20:39 59.2 °F 51.1 °F 30.3 in NNO 2.9 mph 4 mph 74.9% 0 in
20:44 58.8 °F 50.9 °F 30.3 in NNO 2.4 mph 4.6 mph 75.2% 0 in
20:49 58.6 °F 51.1 °F 30.3 in North 2 mph 5 mph 76% 0 in
20:54 58.5 °F 51.1 °F 30.3 in NNO 2.2 mph 5 mph 76.4% 0 in
20:59 58.3 °F 51.1 °F 30.3 in NO 2.4 mph 5.2 mph 77% 0 in
21:04 57.9 °F 50.9 °F 30.3 in ONO 2.7 mph 5 mph 77% 0 in
21:09 57.9 °F 50.7 °F 30.3 in NO 2.9 mph 5 mph 77% 0 in
21:14 57.7 °F 50.4 °F 30.3 in NO 2.9 mph 5 mph 76.1% 0 in
21:19 57.7 °F 50.2 °F 30.3 in NO 2.9 mph 5 mph 76% 0 in
21:24 57.6 °F 50 °F 30.3 in NO 2.5 mph 5 mph 76.1% 0 in
21:28 57.6 °F 50.4 °F 30.3 in NO 2.4 mph 5 mph 77% 0 in
21:33 57.4 °F 50 °F 30.3 in NNO 2 mph 3.6 mph 76.5% 0 in
21:39 57.4 °F 49.8 °F 30.3 in NNO 2 mph 3.5 mph 76% 0 in
21:44 57.4 °F 49.8 °F 30.3 in NNO 1.9 mph 3.5 mph 76% 0 in
21:49 57.6 °F 50 °F 30.3 in NNO 1.8 mph   76% 0 in
21:54 57.6 °F 50 °F 30.3 in NNO 0.7 mph   76% 0 in
21:59 57.6 °F 50 °F 30.3 in Calm   2.4 mph 76% 0 in
22:04 57.6 °F 50 °F 30.3 in Calm   2 mph 76% 0 in
22:09 57.6 °F 50 °F 30.3 in Calm   3.1 mph 76% 0 in
22:14 57.6 °F 50 °F 30.3 in NNO 0.9 mph 3.5 mph 76% 0 in
22:19 57.6 °F 50 °F 30.3 in NNO 1.4 mph 3 mph 76% 0 in
22:24 57.4 °F 50 °F 30.3 in NNO 1.4 mph 2.4 mph 76% 0 in
22:29 57.2 °F 49.6 °F 30.3 in NNO 1.4 mph 2.3 mph 76% 0 in
22:34 57 °F 49.8 °F 30.3 in NNO 0.6 mph 2.3 mph 76.9% 0 in
22:39 57 °F 49.8 °F 30.3 in Calm   2 mph 77% 0 in
22:44 57 °F 49.8 °F 30.3 in Calm   1 mph 77% 0 in
22:49 57 °F 49.8 °F 30.3 in Calm   1.4 mph 77% 0 in
22:54 57 °F 49.6 °F 30.4 in Calm   2.3 mph 76.4% 0 in
22:59 56.8 °F 49.6 °F 30.4 in Calm   2 mph 77% 0 in
23:04 56.7 °F 49.5 °F 30.4 in Calm     77% 0 in
23:09 56.5 °F 49.3 °F 30.4 in Calm     77% 0 in
23:14 56.1 °F 49.3 °F 30.4 in Calm     77.7% 0 in
23:19 56.1 °F 49.3 °F 30.4 in Calm     78% 0 in
23:24 55.9 °F 49.1 °F 30.4 in Calm     78% 0 in
23:29 55.8 °F 48.9 °F 30.4 in Calm   4 mph 78% 0 in
23:34 55.4 °F 48.6 °F 30.4 in NNO 0.8 mph 5 mph 78% 0 in
23:39 55 °F 48.2 °F 30.4 in NNO 1.4 mph 5 mph 78% 0 in
23:44 54.7 °F 48 °F 30.4 in NNO 0.6 mph 2.4 mph 78% 0 in
23:49 54.3 °F 47.7 °F 30.4 in Calm   3.5 mph 78% 0 in
23:54 54.1 °F 47.3 °F 30.4 in NNO 1.1 mph 3 mph 78% 0 in
23:59 54 °F 47.3 °F 30.4 in NNO 1.8 mph 3.6 mph 78% 0 in
Murcia-Puente Tocinos, España
Compliments of Weather Underground - 3 mb

La estación de MeteoMurcia.com, publica sus datos en los siguientes proyectos:

Weather Underground PWS IMURCIAP2 Meteoclimatic www.awekas.at

W3Counter
Web Analytics